createdAt,value
2022-12-14T00:00:31.243Z,100072.81
2022-12-14T00:03:02.892Z,100088.03
2022-12-14T00:05:34.678Z,100092.31
2022-12-14T00:08:06.348Z,100082.88
2022-12-14T00:10:39.266Z,100087.22
2022-12-14T00:13:14.642Z,100085.41
2022-12-14T00:15:45.985Z,100083.69
2022-12-14T00:18:22.318Z,100066.03
2022-12-14T00:20:53.882Z,100076.78
2022-12-14T00:23:25.150Z,100073.38
2022-12-14T00:25:56.900Z,100049.53
2022-12-14T00:28:28.754Z,100069.84
2022-12-14T00:31:00.381Z,100060.06
2022-12-14T00:33:32.600Z,100061.88
2022-12-14T00:36:06.182Z,100060.13
2022-12-14T00:38:38.049Z,100052.69
2022-12-14T00:41:10.335Z,100065.16
2022-12-14T00:43:41.760Z,100037.09
2022-12-14T00:46:13.063Z,100068.53
2022-12-14T00:48:44.710Z,100053.00
2022-12-14T00:51:16.000Z,100055.59
2022-12-14T00:53:47.277Z,100050.44
2022-12-14T00:56:18.643Z,100046.72
2022-12-14T00:58:51.794Z,100052.81
2022-12-14T01:01:23.179Z,100035.84
2022-12-14T01:04:14.527Z,100014.78
2022-12-14T01:06:47.547Z,100045.53
2022-12-14T01:09:20.089Z,100042.75
2022-12-14T01:11:51.892Z,100064.28
2022-12-14T01:14:23.304Z,100057.34
2022-12-14T01:16:54.583Z,100053.72
2022-12-14T01:19:25.887Z,100035.97
2022-12-14T01:21:57.149Z,100033.91
2022-12-14T01:24:28.497Z,100056.59
2022-12-14T01:26:59.773Z,100053.06
2022-12-14T01:29:31.292Z,100024.78
2022-12-14T01:32:02.623Z,100056.16
2022-12-14T01:34:33.864Z,100038.47
2022-12-14T01:37:05.280Z,100036.63
2022-12-14T01:39:36.576Z,100050.47
2022-12-14T01:42:11.808Z,100035.97
2022-12-14T01:44:43.014Z,100057.03
2022-12-14T01:47:28.222Z,100048.38
2022-12-14T01:50:10.461Z,100046.41
2022-12-14T01:52:45.039Z,100012.81
2022-12-14T01:55:24.636Z,100037.34
2022-12-14T01:58:21.028Z,100040.47
2022-12-14T02:00:59.313Z,100032.25
2022-12-14T02:03:34.754Z,100006.31
2022-12-14T02:06:26.756Z,100027.31
2022-12-14T02:08:58.043Z,100029.47
2022-12-14T02:11:51.710Z,100025.75
2022-12-14T02:14:23.774Z,100021.06
2022-12-14T02:16:56.095Z,100021.75
2022-12-14T02:19:27.858Z,100023.22
2022-12-14T02:22:29.199Z,100023.91
2022-12-14T02:25:23.294Z,100013.03
2022-12-14T02:28:32.389Z,100017.03
2022-12-14T02:31:22.204Z,100005.50
2022-12-14T02:33:59.275Z,100022.69
2022-12-14T02:36:42.165Z,100011.31
2022-12-14T02:39:39.913Z,100012.13
2022-12-14T02:42:19.713Z,100008.44
2022-12-14T02:45:07.126Z,99998.84
2022-12-14T02:47:50.083Z,100003.84
2022-12-14T02:50:57.868Z,99984.66
2022-12-14T02:53:33.462Z,99992.44
2022-12-14T02:56:09.231Z,99985.41
2022-12-14T02:58:44.124Z,99984.44
2022-12-14T03:01:19.169Z,99986.88
2022-12-14T03:03:51.013Z,99962.44
2022-12-14T03:06:27.645Z,99983.03
2022-12-14T03:09:08.605Z,99984.22
2022-12-14T03:12:10.005Z,99968.78
2022-12-14T03:14:48.004Z,99959.84
2022-12-14T03:17:27.639Z,99975.25
2022-12-14T03:20:11.198Z,99969.16
2022-12-14T03:22:50.734Z,99960.34
2022-12-14T03:25:30.851Z,99948.69
2022-12-14T03:28:13.057Z,99962.22
2022-12-14T03:31:00.600Z,99967.63
2022-12-14T03:33:35.500Z,99944.72
2022-12-14T03:36:14.834Z,99947.59
2022-12-14T03:38:50.575Z,99916.84
2022-12-14T03:41:27.884Z,99950.09
2022-12-14T03:44:49.044Z,99923.81
2022-12-14T03:47:30.109Z,99939.75
2022-12-14T03:50:11.303Z,99938.84
2022-12-14T03:53:04.368Z,99934.75
2022-12-14T03:55:38.918Z,99938.28
2022-12-14T03:58:57.016Z,99931.22
2022-12-14T04:01:49.450Z,99863.44
2022-12-14T04:04:42.325Z,99922.41
2022-12-14T04:07:37.844Z,99922.28
2022-12-14T04:10:35.650Z,99904.22
2022-12-14T04:13:35.365Z,99908.56
2022-12-14T04:16:31.267Z,99902.94
2022-12-14T04:19:09.816Z,99914.50
2022-12-14T04:21:47.867Z,99869.19
2022-12-14T04:24:44.094Z,99909.34
2022-12-14T04:27:18.581Z,99905.03
2022-12-14T04:29:58.970Z,99892.03
2022-12-14T04:32:38.022Z,99894.53
2022-12-14T04:35:14.409Z,99894.53
2022-12-14T04:37:49.104Z,99891.16
2022-12-14T04:40:25.963Z,99892.84
2022-12-14T04:43:05.596Z,99866.75
2022-12-14T04:45:44.080Z,99881.75
2022-12-14T04:48:36.446Z,99883.59
2022-12-14T04:51:12.707Z,99881.69
2022-12-14T04:53:46.123Z,99879.84
2022-12-14T04:56:17.319Z,99884.72
2022-12-14T04:58:48.930Z,99866.41
2022-12-14T05:01:35.507Z,99881.22
2022-12-14T05:04:33.615Z,99885.47
2022-12-14T05:07:17.176Z,99851.44
2022-12-14T05:09:55.568Z,99872.56
2022-12-14T05:13:03.267Z,99865.81
2022-12-14T05:15:40.905Z,99847.97
2022-12-14T05:18:12.940Z,99862.88
2022-12-14T05:20:46.533Z,99823.25
2022-12-14T05:23:18.168Z,99861.19
2022-12-14T05:25:49.523Z,99850.63
2022-12-14T05:28:20.772Z,99844.31
2022-12-14T05:30:52.085Z,99866.97
2022-12-14T05:33:25.139Z,99852.00
2022-12-14T05:35:56.625Z,99856.63
2022-12-14T05:38:27.878Z,99862.56
2022-12-14T05:40:59.124Z,99855.53
2022-12-14T05:43:30.732Z,99833.38
2022-12-14T05:46:04.772Z,99851.13
2022-12-14T05:48:36.082Z,99850.25
2022-12-14T05:51:13.414Z,99837.03
2022-12-14T05:53:44.739Z,99850.31
2022-12-14T05:56:16.044Z,99840.06
2022-12-14T05:58:50.260Z,99834.03
2022-12-14T06:01:21.687Z,99833.00
2022-12-14T06:03:53.376Z,99825.59
2022-12-14T06:06:24.756Z,99817.81
2022-12-14T06:08:56.081Z,99837.19
2022-12-14T06:11:27.331Z,99837.03
2022-12-14T06:13:58.688Z,99820.09
2022-12-14T06:16:30.014Z,99840.03
2022-12-14T06:19:03.431Z,99841.22
2022-12-14T06:21:37.000Z,99825.59
2022-12-14T06:24:10.672Z,99833.75
2022-12-14T06:26:42.325Z,99818.28
2022-12-14T06:29:17.734Z,99826.13
2022-12-14T06:31:49.437Z,99802.56
2022-12-14T06:34:24.943Z,99823.69
2022-12-14T06:36:59.691Z,99801.09
2022-12-14T06:39:31.079Z,99817.38
2022-12-14T06:42:02.643Z,99810.72
2022-12-14T06:44:34.021Z,99806.59
2022-12-14T06:47:05.403Z,99798.75
2022-12-14T06:49:36.664Z,99805.78
2022-12-14T06:52:07.916Z,99793.47
2022-12-14T06:54:39.166Z,99804.16
2022-12-14T06:57:10.405Z,99788.94
2022-12-14T06:59:41.652Z,99811.72
2022-12-14T07:02:13.080Z,99809.16
2022-12-14T07:04:44.429Z,99806.44
2022-12-14T07:07:15.694Z,99816.00
2022-12-14T07:09:46.956Z,99791.13
2022-12-14T07:12:18.190Z,99805.13
2022-12-14T07:14:49.451Z,99810.63
2022-12-14T07:17:21.590Z,99812.41
2022-12-14T07:19:53.261Z,99802.84
2022-12-14T07:22:24.515Z,99791.41
2022-12-14T07:24:55.756Z,99798.53
2022-12-14T07:27:27.104Z,99803.75
2022-12-14T07:29:58.377Z,99792.59
2022-12-14T07:32:29.772Z,99776.09
2022-12-14T07:35:01.045Z,99796.78
2022-12-14T07:37:32.737Z,99782.97
2022-12-14T07:40:04.539Z,99796.47
2022-12-14T07:42:35.789Z,99788.63
2022-12-14T07:45:07.411Z,99763.88
2022-12-14T07:47:38.662Z,99781.69
2022-12-14T07:50:10.503Z,99793.13
2022-12-14T07:52:41.753Z,99793.88
2022-12-14T07:55:13.029Z,99798.47
2022-12-14T07:57:44.356Z,99799.63
2022-12-14T08:00:16.861Z,99772.78
2022-12-14T08:02:48.169Z,99783.66
2022-12-14T08:05:19.450Z,99781.50
2022-12-14T08:07:50.701Z,99775.66
2022-12-14T08:10:21.944Z,99783.91
2022-12-14T08:12:53.199Z,99786.75
2022-12-14T08:15:24.436Z,99784.31
2022-12-14T08:17:55.717Z,99744.13
2022-12-14T08:20:26.987Z,99757.50
2022-12-14T08:22:58.401Z,99777.13
2022-12-14T08:25:29.710Z,99774.59
2022-12-14T08:28:00.974Z,99784.41
2022-12-14T08:30:32.232Z,99782.16
2022-12-14T08:33:03.496Z,99759.56
2022-12-14T08:35:35.670Z,99763.44
2022-12-14T08:38:06.980Z,99766.28
2022-12-14T08:40:39.640Z,99736.66
2022-12-14T08:43:10.946Z,99767.47
2022-12-14T08:45:42.197Z,99740.66
2022-12-14T08:48:13.451Z,99739.22
2022-12-14T08:50:44.723Z,99738.59
2022-12-14T08:53:21.023Z,99757.44
2022-12-14T08:55:52.284Z,99722.69
2022-12-14T08:58:23.541Z,99729.88
2022-12-14T09:01:03.270Z,99747.75
2022-12-14T09:03:34.978Z,99758.47
2022-12-14T09:06:09.217Z,99754.44
2022-12-14T09:08:40.929Z,99745.16
2022-12-14T09:11:14.780Z,99739.41
2022-12-14T09:13:46.612Z,99749.94
2022-12-14T09:16:19.826Z,99745.13
2022-12-14T09:18:51.099Z,99716.38
2022-12-14T09:21:22.493Z,99741.41
2022-12-14T09:23:59.036Z,99739.16
2022-12-14T09:26:31.065Z,99744.63
2022-12-14T09:29:02.326Z,99717.88
2022-12-14T09:31:33.669Z,99722.75
2022-12-14T09:34:04.939Z,99729.97
2022-12-14T09:36:36.968Z,99732.25
2022-12-14T09:39:08.289Z,99714.09
2022-12-14T09:42:21.209Z,99726.13
2022-12-14T09:44:57.785Z,99727.25
2022-12-14T09:47:37.935Z,99704.88
2022-12-14T09:50:21.123Z,99717.56
2022-12-14T09:53:05.107Z,99717.03
2022-12-14T09:55:44.716Z,99713.03
2022-12-14T09:58:29.028Z,99688.88
2022-12-14T10:01:22.406Z,99710.22
2022-12-14T10:04:02.767Z,99713.94
2022-12-14T10:06:44.560Z,99704.63
2022-12-14T10:09:25.218Z,99690.91
2022-12-14T10:12:19.705Z,99693.94
2022-12-14T10:15:03.960Z,99692.50
2022-12-14T10:18:05.246Z,99693.63
2022-12-14T10:20:52.117Z,99692.09
2022-12-14T10:23:25.080Z,99692.31
2022-12-14T10:26:07.524Z,99695.13
2022-12-14T10:29:01.008Z,99683.25
2022-12-14T10:31:44.716Z,99688.94
2022-12-14T10:34:24.344Z,99697.03
2022-12-14T10:37:36.420Z,99693.91
2022-12-14T10:40:16.414Z,99689.78
2022-12-14T10:43:24.737Z,99685.72
2022-12-14T10:46:13.773Z,99682.34
2022-12-14T10:49:20.311Z,99680.88
2022-12-14T10:51:57.407Z,99680.16
2022-12-14T10:54:33.882Z,99668.94
2022-12-14T10:57:05.572Z,99675.19
2022-12-14T10:59:42.363Z,99666.69
2022-12-14T11:02:24.410Z,99650.34
2022-12-14T11:05:11.806Z,99668.00
2022-12-14T11:07:45.677Z,99662.03
2022-12-14T11:10:21.578Z,99659.50
2022-12-14T11:13:04.936Z,99665.69
2022-12-14T11:15:39.401Z,99657.19
2022-12-14T11:18:16.826Z,99651.22
2022-12-14T11:20:57.227Z,99591.84
2022-12-14T11:23:36.378Z,99663.59
2022-12-14T11:26:26.665Z,99616.66
2022-12-14T11:29:00.449Z,99641.28
2022-12-14T11:31:42.964Z,99636.22
2022-12-14T11:34:29.765Z,99613.59
2022-12-14T11:37:27.633Z,99636.44
2022-12-14T11:40:01.374Z,99635.63
2022-12-14T11:42:33.618Z,99620.84
2022-12-14T11:45:26.585Z,99626.09
2022-12-14T11:48:13.097Z,99626.09
2022-12-14T11:50:46.749Z,99603.38
2022-12-14T11:53:20.237Z,99601.63
2022-12-14T11:56:00.181Z,99616.47
2022-12-14T11:58:39.304Z,99615.63
2022-12-14T12:01:16.593Z,99604.16
2022-12-14T12:03:51.228Z,99631.31
2022-12-14T12:06:25.718Z,99633.91
2022-12-14T12:09:02.552Z,99628.75
2022-12-14T12:11:34.946Z,99639.22
2022-12-14T12:14:34.702Z,99631.41
2022-12-14T12:17:20.119Z,99621.84
2022-12-14T12:19:52.218Z,99623.66
2022-12-14T12:22:23.689Z,99627.16
2022-12-14T12:28:14.505Z,99608.94
2022-12-14T12:30:50.834Z,99591.44
2022-12-14T12:33:26.452Z,99610.69
2022-12-14T12:36:03.624Z,99603.69
2022-12-14T12:38:55.611Z,99595.03
2022-12-14T12:41:37.933Z,99596.81
2022-12-14T12:44:21.243Z,99596.75
2022-12-14T12:47:37.019Z,99578.47
2022-12-14T12:50:19.432Z,99565.34
2022-12-14T12:53:06.040Z,99596.84
2022-12-14T12:56:04.253Z,99595.16
2022-12-14T12:58:36.951Z,99604.69
2022-12-14T13:01:37.637Z,99602.16
2022-12-14T13:04:15.461Z,99596.91
2022-12-14T13:07:05.055Z,99605.44
2022-12-14T13:10:26.024Z,99601.19
2022-12-14T13:13:09.499Z,99604.13
2022-12-14T13:15:48.683Z,99593.84
2022-12-14T13:18:59.562Z,99586.22
2022-12-14T13:21:38.287Z,99592.34
2022-12-14T13:24:17.524Z,99593.22
2022-12-14T13:27:17.286Z,99587.13
2022-12-14T13:30:01.481Z,99592.31
2022-12-14T13:32:57.470Z,99597.50
2022-12-14T13:35:53.471Z,99590.56
2022-12-14T13:38:56.757Z,99592.25
2022-12-14T13:41:39.672Z,99601.75
2022-12-14T13:44:38.634Z,99593.84
2022-12-14T13:47:26.153Z,99581.66
2022-12-14T13:52:58.799Z,99580.78
2022-12-14T13:55:34.201Z,99558.06
2022-12-14T13:58:21.752Z,99576.44
2022-12-14T14:01:16.209Z,99567.72
2022-12-14T14:03:52.353Z,99546.47
2022-12-14T14:06:39.134Z,99569.97
2022-12-14T14:09:28.497Z,99562.00
2022-12-14T14:12:30.962Z,99567.09
2022-12-14T14:15:24.190Z,99547.72
2022-12-14T14:18:06.764Z,99569.50
2022-12-14T14:20:41.650Z,99564.38
2022-12-14T14:23:15.968Z,99572.22
2022-12-14T14:25:51.785Z,99562.72
2022-12-14T14:28:29.880Z,99566.97
2022-12-14T14:31:01.288Z,99562.53
2022-12-14T14:33:47.362Z,99572.97
2022-12-14T14:36:35.996Z,99571.06
2022-12-14T14:39:55.738Z,99555.97
2022-12-14T14:42:24.436Z,99578.47
2022-12-14T14:44:59.618Z,99550.41
2022-12-14T14:47:39.704Z,99551.09
2022-12-14T14:50:14.104Z,99572.97
2022-12-14T14:52:58.569Z,99552.78
2022-12-14T14:58:31.944Z,99570.84
2022-12-14T15:01:06.770Z,99588.09
2022-12-14T15:03:48.854Z,99586.09
2022-12-14T15:06:33.223Z,99582.34
2022-12-14T15:09:23.835Z,99588.09
2022-12-14T15:12:01.142Z,99576.50
2022-12-14T15:14:43.322Z,99572.88
2022-12-14T15:17:22.560Z,99586.59
2022-12-14T15:19:55.565Z,99582.94
2022-12-14T15:22:29.684Z,99581.78
2022-12-14T15:25:02.132Z,99579.91
2022-12-14T15:27:35.887Z,99584.03
2022-12-14T15:30:10.116Z,99590.72
2022-12-14T15:32:47.986Z,99589.53
2022-12-14T15:35:25.308Z,99562.97
2022-12-14T15:38:00.928Z,99595.88
2022-12-14T15:40:34.481Z,99594.63
2022-12-14T15:43:18.315Z,99590.91
2022-12-14T15:45:55.981Z,99593.31
2022-12-14T15:48:34.960Z,99600.06
2022-12-14T15:51:10.867Z,99605.16
2022-12-14T15:53:54.491Z,99605.00
2022-12-14T15:56:34.807Z,99604.72
2022-12-14T15:59:18.407Z,99604.41
2022-12-14T16:02:00.067Z,99577.84
2022-12-14T16:04:37.052Z,99587.25
2022-12-14T16:07:21.060Z,99604.59
2022-12-14T16:09:56.854Z,99601.84
2022-12-14T16:12:44.189Z,99597.03
2022-12-14T16:15:25.884Z,99605.78
2022-12-14T16:18:02.300Z,99608.97
2022-12-14T16:20:37.132Z,99613.16
2022-12-14T16:23:14.264Z,99605.16
2022-12-14T16:25:56.456Z,99594.31
2022-12-14T16:28:36.039Z,99590.66
2022-12-14T16:31:13.215Z,99606.31
2022-12-14T16:33:44.996Z,99601.06
2022-12-14T16:36:25.459Z,99603.69
2022-12-14T16:39:00.532Z,99592.97
2022-12-14T16:41:41.969Z,99603.44
2022-12-14T16:44:29.245Z,99605.94
2022-12-14T16:47:00.448Z,99609.19
2022-12-14T16:49:33.027Z,99593.25
2022-12-14T16:56:06.217Z,99608.63
2022-12-14T16:58:37.724Z,99610.22
2022-12-14T17:01:09.521Z,99613.47
2022-12-14T17:03:41.058Z,99611.59
2022-12-14T17:06:22.675Z,99613.03
2022-12-14T17:08:54.105Z,99615.41
2022-12-14T17:11:29.966Z,99605.38
2022-12-14T17:14:01.410Z,99582.78
2022-12-14T17:16:33.260Z,99614.94
2022-12-14T17:19:05.987Z,99576.53
2022-12-14T17:21:37.413Z,99608.81
2022-12-14T17:24:15.950Z,99594.03
2022-12-14T17:26:48.205Z,99597.59
2022-12-14T17:29:24.148Z,99594.91
2022-12-14T17:31:57.797Z,99594.91
2022-12-14T17:34:29.956Z,99603.47
2022-12-14T17:37:01.226Z,99581.47
2022-12-14T17:39:35.560Z,99574.25
2022-12-14T17:42:11.297Z,99607.41
2022-12-14T17:44:46.328Z,99597.66
2022-12-14T17:47:17.627Z,99572.97
2022-12-14T17:49:48.886Z,99603.50
2022-12-14T17:52:26.679Z,99605.09
2022-12-14T17:54:59.001Z,99601.53
2022-12-14T17:57:30.580Z,99597.63
2022-12-14T18:00:20.776Z,99609.97
2022-12-14T18:02:52.200Z,99615.00
2022-12-14T18:05:23.635Z,99607.03
2022-12-14T18:07:54.888Z,99586.75
2022-12-14T18:10:27.139Z,99584.00
2022-12-14T18:12:58.630Z,99603.09
2022-12-14T18:15:39.354Z,99608.81
2022-12-14T18:18:10.624Z,99596.47
2022-12-14T18:20:44.768Z,99616.66
2022-12-14T18:23:21.716Z,99610.63
2022-12-14T18:25:55.514Z,99612.31
2022-12-14T18:28:26.862Z,99611.44
2022-12-14T18:31:13.227Z,99609.63
2022-12-14T18:33:45.486Z,99601.56
2022-12-14T18:36:19.735Z,99593.38
2022-12-14T18:38:51.948Z,99613.38
2022-12-14T18:41:26.389Z,99602.66
2022-12-14T18:44:00.446Z,99615.78
2022-12-14T18:46:31.876Z,99558.88
2022-12-14T18:49:03.210Z,99610.31
2022-12-14T18:51:34.471Z,99618.03
2022-12-14T18:54:05.846Z,99625.66
2022-12-14T18:56:37.281Z,99613.47
2022-12-14T18:59:08.687Z,99619.56
2022-12-14T19:01:40.188Z,99622.09
2022-12-14T19:04:11.595Z,99615.81
2022-12-14T19:06:45.065Z,99630.38
2022-12-14T19:09:16.750Z,99620.84
2022-12-14T19:11:48.023Z,99595.13
2022-12-14T19:14:19.386Z,99596.06
2022-12-14T19:16:51.677Z,99609.19
2022-12-14T19:19:25.711Z,99621.34
2022-12-14T19:21:58.970Z,99612.69
2022-12-14T19:24:30.224Z,99594.06
2022-12-14T19:27:01.628Z,99624.53
2022-12-14T19:29:33.041Z,99620.84
2022-12-14T19:32:05.875Z,99625.06
2022-12-14T19:34:37.379Z,99637.16
2022-12-14T19:37:08.803Z,99644.06
2022-12-14T19:39:40.225Z,99652.53
2022-12-14T19:42:11.621Z,99623.47
2022-12-14T19:44:43.042Z,99653.97
2022-12-14T19:47:14.729Z,99624.72
2022-12-14T19:49:46.112Z,99633.25
2022-12-14T19:52:17.380Z,99633.13
2022-12-14T19:54:48.651Z,99648.53
2022-12-14T19:57:19.943Z,99656.19
2022-12-14T19:59:51.294Z,99659.69
2022-12-14T20:02:22.692Z,99650.78
2022-12-14T20:04:54.111Z,99669.03
2022-12-14T20:07:25.459Z,99653.28
2022-12-14T20:09:56.713Z,99648.88
2022-12-14T20:12:31.855Z,99625.31
2022-12-14T20:15:04.043Z,99646.38
2022-12-14T20:17:35.364Z,99626.13
2022-12-14T20:20:07.329Z,99632.19
2022-12-14T20:22:38.617Z,99640.19
2022-12-14T20:25:10.206Z,99633.75
2022-12-14T20:27:41.561Z,99642.75
2022-12-14T20:30:12.986Z,99624.97
2022-12-14T20:32:44.434Z,99618.03
2022-12-14T20:35:20.712Z,99618.84
2022-12-14T20:37:55.758Z,99641.72
2022-12-14T20:40:27.059Z,99621.53
2022-12-14T20:42:58.339Z,99629.09
2022-12-14T20:45:29.644Z,99645.13
2022-12-14T20:48:01.084Z,99631.06
2022-12-14T20:50:32.629Z,99631.88
2022-12-14T20:53:04.557Z,99644.25
2022-12-14T20:55:36.126Z,99633.81
2022-12-14T20:58:07.445Z,99637.22
2022-12-14T21:00:38.809Z,99591.78
2022-12-14T21:03:10.341Z,99638.34
2022-12-14T21:05:42.028Z,99636.53
2022-12-14T21:08:15.534Z,99631.31
2022-12-14T21:10:46.810Z,99614.78
2022-12-14T21:13:18.197Z,99650.16
2022-12-14T21:15:49.475Z,99630.97
2022-12-14T21:18:20.817Z,99651.16
2022-12-14T21:20:52.088Z,99627.34
2022-12-14T21:23:23.371Z,99655.69
2022-12-14T21:25:54.641Z,99661.91
2022-12-14T21:28:30.467Z,99656.75
2022-12-14T21:31:05.318Z,99665.69
2022-12-14T21:33:36.595Z,99611.28
2022-12-14T21:36:08.634Z,99622.91
2022-12-14T21:38:39.917Z,99640.78
2022-12-14T21:41:30.217Z,99633.88
2022-12-14T21:44:01.504Z,99651.56
2022-12-14T21:46:33.226Z,99659.09
2022-12-14T21:49:06.593Z,99664.56
2022-12-14T21:51:38.282Z,99640.78
2022-12-14T21:54:16.324Z,99642.78
2022-12-14T21:57:05.966Z,99639.16
2022-12-14T21:59:39.673Z,99657.72
2022-12-14T22:02:17.246Z,99664.63
2022-12-14T22:04:49.680Z,99661.94
2022-12-14T22:07:22.223Z,99627.56
2022-12-14T22:09:53.509Z,99657.34
2022-12-14T22:12:25.458Z,99680.81
2022-12-14T22:14:56.732Z,99674.03
2022-12-14T22:17:28.019Z,99648.50
2022-12-14T22:19:59.394Z,99664.19
2022-12-14T22:22:30.727Z,99673.91
2022-12-14T22:25:02.171Z,99688.91
2022-12-14T22:27:33.559Z,99688.78
2022-12-14T22:30:05.488Z,99679.16
2022-12-14T22:32:36.737Z,99684.19
2022-12-14T22:35:09.392Z,99668.38
2022-12-14T22:37:40.641Z,99664.72
2022-12-14T22:40:12.378Z,99660.34
2022-12-14T22:42:43.727Z,99672.50
2022-12-14T22:45:14.993Z,99672.38
2022-12-14T22:47:46.296Z,99684.69
2022-12-14T22:50:17.866Z,99685.56
2022-12-14T22:52:49.665Z,99673.81
2022-12-14T22:55:21.356Z,99685.97
2022-12-14T22:57:53.958Z,99684.47
2022-12-14T23:00:25.245Z,99660.50
2022-12-14T23:02:56.667Z,99689.56
2022-12-14T23:05:28.078Z,99694.69
2022-12-14T23:07:59.316Z,99654.63
2022-12-14T23:10:49.888Z,99665.84
2022-12-14T23:13:39.806Z,99687.75
2022-12-14T23:16:29.978Z,99692.88
2022-12-14T23:19:20.133Z,99691.81
2022-12-14T23:22:09.854Z,99692.41
2022-12-14T23:24:59.633Z,99672.09
2022-12-14T23:27:49.879Z,99693.84
2022-12-14T23:30:39.988Z,99686.00
2022-12-14T23:33:30.274Z,99663.16
2022-12-14T23:36:20.095Z,99677.63
2022-12-14T23:39:09.778Z,99681.94
2022-12-14T23:41:59.625Z,99680.88
2022-12-14T23:44:49.717Z,99689.97
2022-12-14T23:47:39.672Z,99696.94
2022-12-14T23:50:30.106Z,99666.41
2022-12-14T23:53:27.634Z,99677.00
2022-12-14T23:56:19.052Z,99680.66
2022-12-14T23:59:13.340Z,99676.38
